Time;durP1;ratioP1;P1;durP2;ratioP2;P2;SDS_P1;SDS_P2;PMS_P1;PMS_P2;Temp;Humidity;BMP_temperature;BMP_pressure;BME280_temperature;BME280_humidity;BME280_pressure;Samples;Min_cycle;Max_cycle;Signal;HPM_P1;HPM_P2
2021/03/09 00:00:18;;;;;;;17.73;8.37;;;5.30;99.90;;;;;;5043357;28;20213;-76
2021/03/09 00:02:44;;;;;;;17.63;9.57;;;5.20;99.90;;;;;;5050551;28;20637;-76
2021/03/09 00:05:11;;;;;;;23.20;10.10;;;5.30;99.90;;;;;;5045589;28;20198;-77
2021/03/09 00:07:39;;;;;;;22.00;10.20;;;5.30;99.90;;;;;;5044241;28;20287;-77
2021/03/09 00:10:06;;;;;;;16.63;8.77;;;5.20;99.90;;;;;;5048452;28;20204;-76
2021/03/09 00:12:33;;;;;;;18.73;8.80;;;5.20;99.90;;;;;;5049673;28;20206;-76
2021/03/09 00:14:59;;;;;;;16.67;7.87;;;5.20;99.90;;;;;;5062708;28;20251;-76
2021/03/09 00:17:31;;;;;;;19.00;9.03;;;5.00;99.90;;;;;;5051154;28;20294;-76
2021/03/09 00:19:58;;;;;;;19.70;8.87;;;4.90;99.90;;;;;;5045778;28;20261;-76
2021/03/09 00:22:24;;;;;;;15.20;8.23;;;5.00;99.90;;;;;;5057120;28;20232;-75
2021/03/09 00:24:50;;;;;;;18.50;9.43;;;5.00;99.90;;;;;;5067175;28;20541;-75
2021/03/09 00:27:17;;;;;;;16.90;8.87;;;4.90;99.90;;;;;;5065865;28;20288;-76
2021/03/09 00:29:43;;;;;;;15.27;8.07;;;4.90;99.90;;;;;;5052115;28;20257;-76
2021/03/09 00:32:10;;;;;;;16.97;9.10;;;4.90;99.90;;;;;;5050866;28;20265;-75
2021/03/09 00:34:36;;;;;;;14.03;7.60;;;4.80;99.90;;;;;;5050919;28;20218;-75
2021/03/09 00:37:04;;;;;;;19.37;8.97;;;4.90;99.90;;;;;;5037427;28;20193;-76
2021/03/09 00:39:30;;;;;;;16.10;8.93;;;4.80;99.90;;;;;;5065338;28;20202;-77
2021/03/09 00:41:57;;;;;;;15.77;9.23;;;4.80;99.90;;;;;;5045797;28;20348;-77
2021/03/09 00:44:23;;;;;;;15.57;8.43;;;4.70;99.90;;;;;;5068414;28;20201;-78
2021/03/09 00:46:50;;;;;;;17.60;9.00;;;4.70;99.90;;;;;;5044573;28;20207;-76
2021/03/09 00:49:17;;;;;;;15.23;9.60;;;4.80;99.90;;;;;;5052295;28;20287;-76
2021/03/09 00:51:43;;;;;;;18.27;9.10;;;4.70;99.90;;;;;;5048646;28;20242;-76
2021/03/09 00:54:10;;;;;;;16.53;9.30;;;4.60;99.90;;;;;;5050372;28;20852;-75
2021/03/09 00:56:36;;;;;;;19.30;9.90;;;4.70;99.90;;;;;;5066687;28;20202;-76
2021/03/09 00:59:03;;;;;;;16.73;8.97;;;4.70;99.90;;;;;;5034456;28;20596;-76
2021/03/09 01:01:29;;;;;;;22.70;10.43;;;4.70;99.90;;;;;;5046065;28;20203;-76
2021/03/09 01:03:56;;;;;;;20.77;9.40;;;4.60;99.90;;;;;;5046560;28;20665;-76
2021/03/09 01:06:23;;;;;;;21.10;9.17;;;4.60;99.90;;;;;;5053493;28;20645;-76
2021/03/09 01:08:49;;;;;;;22.30;10.93;;;4.70;99.90;;;;;;5039910;28;20573;-76
2021/03/09 01:11:16;;;;;;;22.23;9.87;;;4.70;99.90;;;;;;5048711;28;20792;-76
2021/03/09 01:13:43;;;;;;;20.53;11.07;;;4.60;99.90;;;;;;5056880;28;20274;-76
2021/03/09 01:16:10;;;;;;;20.03;9.80;;;4.60;99.90;;;;;;5061315;28;20643;-76
2021/03/09 01:18:37;;;;;;;20.63;10.87;;;4.70;99.90;;;;;;5047999;28;20653;-76
2021/03/09 01:21:03;;;;;;;18.93;11.13;;;4.70;99.90;;;;;;5025694;28;20206;-76
2021/03/09 01:23:30;;;;;;;19.93;10.73;;;4.70;99.90;;;;;;5040162;28;20302;-76
2021/03/09 01:25:57;;;;;;;20.23;11.70;;;4.70;99.90;;;;;;5054554;28;20212;-76
2021/03/09 01:28:23;;;;;;;21.97;11.37;;;4.80;99.90;;;;;;5048833;28;20200;-77
2021/03/09 01:30:49;;;;;;;26.70;12.30;;;4.70;99.90;;;;;;5031755;28;20258;-76
2021/03/09 01:33:16;;;;;;;24.03;12.37;;;4.70;99.90;;;;;;5045074;28;20197;-77
2021/03/09 01:35:42;;;;;;;26.03;12.00;;;4.60;99.90;;;;;;5045828;28;20248;-77
2021/03/09 01:38:08;;;;;;;24.53;12.40;;;4.60;99.90;;;;;;5055061;28;21064;-77
2021/03/09 01:40:35;;;;;;;22.40;11.20;;;4.60;99.90;;;;;;5030176;28;20658;-76
2021/03/09 01:43:03;;;;;;;26.27;11.27;;;4.60;99.90;;;;;;5046166;28;20714;-77
2021/03/09 01:45:30;;;;;;;26.90;12.50;;;4.60;99.90;;;;;;5049330;28;20213;-76
2021/03/09 01:48:02;;;;;;;19.83;11.97;;;4.60;99.90;;;;;;5045129;28;20267;-76
2021/03/09 01:50:29;;;;;;;24.60;12.47;;;4.60;99.90;;;;;;5062052;28;20306;-75
2021/03/09 01:52:55;;;;;;;24.90;12.07;;;4.50;99.90;;;;;;5064161;28;20257;-76
2021/03/09 01:55:22;;;;;;;26.80;13.20;;;4.50;99.90;;;;;;5048751;28;20325;-76
2021/03/09 01:57:51;;;;;;;26.97;14.50;;;4.50;99.90;;;;;;5031698;28;20207;-76
2021/03/09 02:00:18;;;;;;;29.90;14.03;;;4.40;99.90;;;;;;5060998;28;20205;-76
2021/03/09 02:02:44;;;;;;;23.60;13.43;;;4.50;99.90;;;;;;5050090;28;20196;-76
2021/03/09 02:05:12;;;;;;;33.43;15.63;;;4.60;99.90;;;;;;5041298;28;20220;-76
2021/03/09 02:07:39;;;;;;;25.20;12.47;;;4.50;99.90;;;;;;5061791;28;20209;-75
2021/03/09 02:10:12;;;;;;;27.23;13.77;;;4.50;99.90;;;;;;5048316;28;20218;-76
2021/03/09 02:12:41;;;;;;;31.30;14.87;;;4.50;99.90;;;;;;5056724;28;20281;-76
2021/03/09 02:15:23;;;;;;;26.47;14.47;;;4.50;99.90;;;;;;5052476;28;20264;-76
2021/03/09 02:18:02;;;;;;;27.93;13.43;;;4.50;99.90;;;;;;5061980;28;20280;-76
2021/03/09 02:20:56;;;;;;;31.27;15.73;;;4.50;99.90;;;;;;5043136;28;20196;-76
2021/03/09 02:23:44;;;;;;;27.30;14.47;;;4.50;99.90;;;;;;5061153;28;20290;-77
2021/03/09 02:26:37;;;;;;;35.57;16.47;;;4.50;99.90;;;;;;5048949;28;20278;-76
2021/03/09 02:29:29;;;;;;;32.50;16.10;;;4.50;99.90;;;;;;5061258;28;20204;-77
2021/03/09 02:31:57;;;;;;;33.33;15.20;;;4.50;99.90;;;;;;5048770;28;20612;-77
2021/03/09 02:34:29;;;;;;;27.40;15.07;;;4.50;99.90;;;;;;5044654;28;20636;-76
2021/03/09 02:36:57;;;;;;;33.10;15.57;;;4.50;99.90;;;;;;5039587;28;20232;-76
2021/03/09 02:39:26;;;;;;;29.67;15.80;;;4.50;99.90;;;;;;5039523;28;22730;-76
2021/03/09 02:41:56;;;;;;;32.10;16.77;;;4.40;99.90;;;;;;5037151;28;20203;-75
2021/03/09 02:44:25;;;;;;;31.97;14.57;;;4.50;99.90;;;;;;5043635;28;20269;-75
2021/03/09 02:46:51;;;;;;;29.37;15.47;;;4.40;99.90;;;;;;5019919;28;20244;-75
2021/03/09 02:49:33;;;;;;;29.83;16.00;;;4.50;99.90;;;;;;5039670;28;20212;-75
2021/03/09 02:52:01;;;;;;;33.03;17.00;;;4.40;99.90;;;;;;5039838;28;20211;-75
2021/03/09 02:54:28;;;;;;;32.23;17.97;;;4.40;99.90;;;;;;5045801;28;20632;-75
2021/03/09 02:56:55;;;;;;;38.07;19.03;;;4.50;99.90;;;;;;5043824;28;20207;-75
2021/03/09 02:59:23;;;;;;;36.77;18.87;;;4.50;99.90;;;;;;5061543;28;20571;-75
2021/03/09 03:01:49;;;;;;;35.90;17.97;;;4.50;99.90;;;;;;5062958;28;20204;-75
2021/03/09 03:04:19;;;;;;;34.60;17.77;;;4.60;99.90;;;;;;5045863;28;20219;-75
2021/03/09 03:06:47;;;;;;;32.23;16.93;;;4.50;99.90;;;;;;5044148;28;20207;-75
2021/03/09 03:09:17;;;;;;;36.97;18.57;;;4.40;99.90;;;;;;5048219;28;20216;-75
2021/03/09 03:11:45;;;;;;;39.33;18.00;;;4.40;99.90;;;;;;5051863;28;20198;-75
2021/03/09 03:14:12;;;;;;;44.30;20.73;;;4.50;99.90;;;;;;5043595;28;20254;-76
2021/03/09 03:16:39;;;;;;;34.47;18.57;;;4.60;99.90;;;;;;5057656;28;20232;-74
2021/03/09 03:19:07;;;;;;;37.03;19.20;;;4.50;99.90;;;;;;5067745;28;20192;-76
2021/03/09 03:21:38;;;;;;;42.30;18.87;;;4.50;99.90;;;;;;5032553;28;20289;-76
2021/03/09 03:24:07;;;;;;;35.87;19.83;;;4.50;99.90;;;;;;5068427;28;20702;-76
2021/03/09 03:26:37;;;;;;;39.03;18.93;;;4.50;99.90;;;;;;5053197;28;20818;-76
2021/03/09 03:29:06;;;;;;;35.60;18.87;;;4.40;99.90;;;;;;5064338;28;20220;-76
2021/03/09 03:31:33;;;;;;;35.60;18.60;;;4.40;99.90;;;;;;5039464;28;20282;-75
2021/03/09 03:34:00;;;;;;;38.30;20.13;;;4.40;99.90;;;;;;5065422;28;20612;-75
2021/03/09 03:36:27;;;;;;;36.57;18.97;;;4.40;99.90;;;;;;5051442;28;20629;-75
2021/03/09 03:38:57;;;;;;;37.70;17.97;;;4.40;99.90;;;;;;5055887;28;20203;-75
2021/03/09 03:41:23;;;;;;;34.33;17.97;;;4.40;99.90;;;;;;5051852;28;20248;-76
2021/03/09 03:43:50;;;;;;;34.87;16.33;;;4.40;99.90;;;;;;5064684;28;20268;-75
2021/03/09 03:46:16;;;;;;;36.10;17.33;;;4.50;99.90;;;;;;5052353;28;20207;-75
2021/03/09 03:48:46;;;;;;;35.57;18.60;;;4.40;99.90;;;;;;5035805;28;20204;-75
2021/03/09 03:51:15;;;;;;;34.40;18.00;;;4.40;99.90;;;;;;5025431;28;20239;-77
2021/03/09 03:54:00;;;;;;;41.43;20.23;;;4.40;99.90;;;;;;5042868;28;20204;-76
2021/03/09 03:57:03;;;;;;;32.80;16.30;;;4.60;99.90;;;;;;5060603;28;20275;-76
2021/03/09 03:59:35;;;;;;;32.10;15.60;;;4.50;99.90;;;;;;5061252;28;20558;-77
2021/03/09 04:02:08;;;;;;;32.27;16.20;;;4.40;99.90;;;;;;5045330;28;20261;-76
2021/03/09 04:04:38;;;;;;;30.73;17.03;;;4.40;99.90;;;;;;5044299;28;20564;-76
2021/03/09 04:07:05;;;;;;;32.03;17.33;;;4.40;99.90;;;;;;5067020;28;20203;-77
2021/03/09 04:09:32;;;;;;;31.63;16.40;;;4.40;99.90;;;;;;5044014;28;20638;-75
2021/03/09 04:12:01;;;;;;;28.57;15.53;;;4.30;99.90;;;;;;5043525;28;20250;-76
2021/03/09 04:14:32;;;;;;;32.73;16.63;;;4.40;99.90;;;;;;5045142;28;20273;-76
2021/03/09 04:17:01;;;;;;;33.77;16.73;;;4.40;99.90;;;;;;5041105;28;20241;-76
2021/03/09 04:19:29;;;;;;;33.70;17.13;;;4.40;99.90;;;;;;5067067;28;20728;-76
2021/03/09 04:21:57;;;;;;;30.00;15.33;;;4.40;99.90;;;;;;5066457;28;20200;-75
2021/03/09 04:24:25;;;;;;;35.47;17.47;;;4.50;99.90;;;;;;5054032;28;20203;-75
2021/03/09 04:26:52;;;;;;;29.03;15.67;;;4.40;99.90;;;;;;5049004;28;20196;-75
2021/03/09 04:29:19;;;;;;;34.50;15.83;;;4.50;99.90;;;;;;5029672;28;20212;-76
2021/03/09 04:31:46;;;;;;;35.37;17.63;;;4.50;99.90;;;;;;5040693;28;20200;-75
2021/03/09 04:34:16;;;;;;;27.60;15.30;;;4.60;99.90;;;;;;5049668;28;20204;-76
2021/03/09 04:36:43;;;;;;;32.23;16.80;;;4.50;99.90;;;;;;5055604;28;20219;-76
2021/03/09 04:39:11;;;;;;;31.13;16.10;;;4.50;99.90;;;;;;5040961;28;20290;-76
2021/03/09 04:41:38;;;;;;;32.40;16.90;;;4.50;99.90;;;;;;5059127;28;20217;-75
2021/03/09 04:44:05;;;;;;;35.50;17.87;;;4.60;99.90;;;;;;5049545;28;20557;-76
2021/03/09 04:46:31;;;;;;;31.60;16.53;;;4.50;99.90;;;;;;5042920;28;20274;-75
2021/03/09 04:48:58;;;;;;;29.10;16.37;;;4.50;99.90;;;;;;5056776;28;20210;-75
2021/03/09 04:51:26;;;;;;;27.27;15.90;;;4.50;99.90;;;;;;5044498;28;20304;-75
2021/03/09 04:53:53;;;;;;;34.27;17.43;;;4.50;99.90;;;;;;5031428;28;20208;-75
2021/03/09 04:56:19;;;;;;;35.57;19.07;;;4.50;99.90;;;;;;5071261;28;20259;-75
2021/03/09 04:58:46;;;;;;;29.63;16.73;;;4.50;99.90;;;;;;5047876;28;20340;-75
2021/03/09 05:01:12;;;;;;;32.20;17.00;;;4.40;99.90;;;;;;5046118;28;20232;-75
2021/03/09 05:03:39;;;;;;;33.10;16.97;;;4.40;99.90;;;;;;5049543;28;20218;-76
2021/03/09 05:06:05;;;;;;;31.37;16.67;;;4.50;99.90;;;;;;5057302;28;20244;-75
2021/03/09 05:08:31;;;;;;;30.90;16.20;;;4.50;99.90;;;;;;5060509;28;20635;-76
2021/03/09 05:10:58;;;;;;;32.53;18.27;;;4.60;99.90;;;;;;5040373;28;20236;-76
2021/03/09 05:13:24;;;;;;;31.70;17.70;;;4.60;99.90;;;;;;5065050;28;20219;-75
2021/03/09 05:15:50;;;;;;;35.07;17.60;;;4.60;99.90;;;;;;5036708;28;20259;-75
2021/03/09 05:18:17;;;;;;;33.40;16.97;;;4.50;99.90;;;;;;5067170;28;20306;-76
2021/03/09 05:20:44;;;;;;;29.80;16.07;;;4.60;99.90;;;;;;5062225;28;20264;-75
2021/03/09 05:23:11;;;;;;;32.03;18.13;;;4.70;99.90;;;;;;5052237;28;20210;-76
2021/03/09 05:25:37;;;;;;;27.53;16.10;;;4.60;99.90;;;;;;5041590;28;20246;-75
2021/03/09 05:28:04;;;;;;;30.47;17.37;;;4.60;99.90;;;;;;5029940;28;20231;-76
2021/03/09 05:30:30;;;;;;;33.23;18.17;;;4.60;99.90;;;;;;5044128;28;20208;-76
2021/03/09 05:32:57;;;;;;;34.80;18.20;;;4.70;99.90;;;;;;5032718;28;20236;-76
2021/03/09 05:35:25;;;;;;;33.03;16.90;;;4.60;99.90;;;;;;5047394;28;20242;-76
2021/03/09 05:37:51;;;;;;;31.97;17.07;;;4.60;99.90;;;;;;5051469;28;20218;-76
2021/03/09 05:40:19;;;;;;;35.23;16.70;;;4.60;99.90;;;;;;5050686;28;20260;-76
2021/03/09 05:42:50;;;;;;;33.23;17.73;;;4.60;99.90;;;;;;5051589;28;20195;-76
2021/03/09 05:45:18;;;;;;;32.77;17.70;;;4.60;99.90;;;;;;5046230;28;20199;-75
2021/03/09 05:47:45;;;;;;;33.63;15.97;;;4.60;99.90;;;;;;5033995;28;20512;-75
2021/03/09 05:50:13;;;;;;;35.77;17.43;;;4.60;99.90;;;;;;5048716;28;20514;-75
2021/03/09 05:52:40;;;;;;;38.73;19.60;;;4.60;99.90;;;;;;5033114;28;20203;-75
2021/03/09 05:55:09;;;;;;;32.00;17.60;;;4.70;99.90;;;;;;5059317;28;20577;-75
2021/03/09 05:57:35;;;;;;;31.30;17.93;;;4.70;99.90;;;;;;5032479;28;20206;-75
2021/03/09 06:00:05;;;;;;;37.93;19.07;;;4.70;99.90;;;;;;5030319;28;20239;-75
2021/03/09 06:02:31;;;;;;;32.60;17.10;;;4.90;99.90;;;;;;5061166;28;20212;-74
2021/03/09 06:04:57;;;;;;;33.77;17.23;;;4.90;99.90;;;;;;5025916;28;20782;-75
2021/03/09 06:07:24;;;;;;;34.80;17.77;;;4.90;99.90;;;;;;5049535;28;20214;-74
2021/03/09 06:09:50;;;;;;;35.97;18.73;;;5.00;99.90;;;;;;5040023;28;20227;-76
2021/03/09 06:12:21;;;;;;;32.50;17.70;;;4.90;99.90;;;;;;5054671;28;20235;-75
2021/03/09 06:15:00;;;;;;;36.23;19.50;;;4.90;99.90;;;;;;5048572;28;20199;-75
2021/03/09 06:17:32;;;;;;;34.93;18.73;;;4.90;99.90;;;;;;5049297;28;20219;-75
2021/03/09 06:20:18;;;;;;;34.07;17.67;;;5.00;99.90;;;;;;5049985;28;20188;-76
2021/03/09 06:22:48;;;;;;;37.63;19.60;;;5.00;99.90;;;;;;5050021;28;20203;-76
2021/03/09 06:25:24;;;;;;;33.93;18.93;;;5.00;99.90;;;;;;5037425;28;20295;-75
2021/03/09 06:27:50;;;;;;;34.03;19.17;;;5.00;99.90;;;;;;5055871;28;20196;-76
2021/03/09 06:30:19;;;;;;;35.23;19.53;;;4.90;99.90;;;;;;5046268;28;20276;-75
2021/03/09 06:32:46;;;;;;;36.20;18.40;;;4.80;99.90;;;;;;5048319;28;20699;-75
2021/03/09 06:35:31;;;;;;;33.60;18.37;;;4.90;99.90;;;;;;5049112;28;20610;-79
2021/03/09 06:38:17;;;;;;;33.27;18.67;;;4.90;99.90;;;;;;5071137;28;20209;-80
2021/03/09 06:41:04;;;;;;;36.63;19.23;;;4.90;99.90;;;;;;5061405;28;20199;-85
2021/03/09 06:43:31;;;;;;;37.93;19.17;;;4.90;99.90;;;;;;5046367;28;20194;-79
2021/03/09 06:46:18;;;;;;;30.47;17.57;;;5.20;99.90;;;;;;5067708;28;20266;-79
2021/03/09 06:48:51;;;;;;;32.13;18.07;;;5.10;99.90;;;;;;5049974;28;20667;-82
2021/03/09 06:51:32;;;;;;;37.20;19.43;;;5.00;99.90;;;;;;5065249;28;21370;-80
2021/03/09 06:54:08;;;;;;;40.57;19.57;;;5.10;99.90;;;;;;5052425;28;20219;-83
2021/03/09 06:56:37;;;;;;;38.80;19.00;;;5.20;99.90;;;;;;5046976;28;20678;-83
2021/03/09 06:59:27;;;;;;;36.37;19.83;;;5.20;99.90;;;;;;5052012;28;20312;-79
2021/03/09 07:02:13;;;;;;;36.10;19.93;;;5.20;99.90;;;;;;5061897;28;20207;-79
2021/03/09 07:04:45;;;;;;;33.43;18.00;;;5.20;99.90;;;;;;5049264;28;20327;-81
2021/03/09 07:07:14;;;;;;;34.00;19.23;;;5.10;99.90;;;;;;5041636;28;20202;-79
2021/03/09 07:09:52;;;;;;;30.40;19.13;;;5.30;99.90;;;;;;5058378;28;20988;-80
2021/03/09 07:12:19;;;;;;;34.77;17.77;;;5.40;99.90;;;;;;5053264;28;20248;-84
2021/03/09 07:14:46;;;;;;;34.90;19.53;;;5.50;99.90;;;;;;5050855;28;20199;-81
2021/03/09 07:17:14;;;;;;;36.03;18.80;;;5.60;99.90;;;;;;5069431;28;20301;-82
2021/03/09 07:19:43;;;;;;;32.87;18.33;;;5.70;99.90;;;;;;5050066;28;20238;-81
2021/03/09 07:22:13;;;;;;;30.20;17.53;;;5.80;99.90;;;;;;5046827;28;20200;-82
2021/03/09 07:25:14;;;;;;;32.10;18.80;;;5.90;99.90;;;;;;5049784;28;20207;-83
2021/03/09 07:27:58;;;;;;;33.87;18.37;;;5.80;99.90;;;;;;5052156;28;20199;-84
2021/03/09 07:30:29;;;;;;;29.43;15.47;;;5.70;99.90;;;;;;5063259;28;20205;-82
2021/03/09 07:32:58;;;;;;;27.43;15.63;;;5.70;99.90;;;;;;5050053;28;20290;-84
2021/03/09 07:35:27;;;;;;;27.87;15.77;;;5.80;99.90;;;;;;5051877;28;20219;-82
2021/03/09 07:37:54;;;;;;;26.43;14.37;;;5.80;99.90;;;;;;5036076;28;20207;-82
2021/03/09 07:40:30;;;;;;;32.57;15.87;;;6.00;99.90;;;;;;5045961;28;20279;-81
2021/03/09 07:42:57;;;;;;;29.77;16.40;;;6.00;99.90;;;;;;5052476;28;20281;-81
2021/03/09 07:45:25;;;;;;;27.77;16.40;;;6.00;99.90;;;;;;5044357;28;20261;-82
2021/03/09 07:48:03;;;;;;;28.60;16.63;;;6.00;99.90;;;;;;5049594;28;20198;-81
2021/03/09 07:50:40;;;;;;;26.90;15.30;;;6.10;99.90;;;;;;5061985;28;21117;-83
2021/03/09 07:53:14;;;;;;;27.80;15.57;;;6.30;99.90;;;;;;5051547;28;20187;-83
2021/03/09 07:55:47;;;;;;;29.70;16.30;;;6.20;99.90;;;;;;5044117;28;20192;-82
2021/03/09 07:58:28;;;;;;;31.80;15.80;;;6.20;99.90;;;;;;5050565;28;20709;-81
2021/03/09 08:01:00;;;;;;;25.60;13.90;;;6.40;99.90;;;;;;5063546;28;20210;-81
2021/03/09 08:03:27;;;;;;;27.70;14.73;;;6.40;99.90;;;;;;5061406;28;20183;-79
2021/03/09 08:05:57;;;;;;;25.47;13.90;;;6.60;99.90;;;;;;5048075;28;20951;-82
2021/03/09 08:08:44;;;;;;;24.10;12.77;;;6.70;99.90;;;;;;5066612;28;20195;-82
2021/03/09 08:11:19;;;;;;;23.90;12.53;;;6.80;99.90;;;;;;5069331;28;20564;-81
2021/03/09 08:13:47;;;;;;;24.03;12.53;;;6.90;99.90;;;;;;5066492;28;20202;-82
2021/03/09 08:16:19;;;;;;;24.60;12.60;;;6.90;99.90;;;;;;5052691;28;20376;-81
2021/03/09 08:18:56;;;;;;;22.33;12.00;;;7.00;99.90;;;;;;5071528;28;20906;-79
2021/03/09 08:21:52;;;;;;;21.90;10.80;;;7.10;99.90;;;;;;5065628;28;20199;-79
2021/03/09 08:24:39;;;;;;;15.43;8.73;;;7.00;99.90;;;;;;5070917;28;20204;-81
2021/03/09 08:27:30;;;;;;;12.80;6.53;;;7.10;99.90;;;;;;5042706;28;20636;-80
2021/03/09 08:30:18;;;;;;;11.27;5.70;;;7.00;99.90;;;;;;5069665;28;20265;-80
2021/03/09 08:32:45;;;;;;;9.17;5.40;;;7.20;99.90;;;;;;5035844;28;20219;-81
2021/03/09 08:35:11;;;;;;;8.43;4.77;;;7.20;99.90;;;;;;5037598;28;20222;-81
2021/03/09 08:37:39;;;;;;;12.17;4.50;;;6.90;99.90;;;;;;5068486;28;20203;-81
2021/03/09 08:40:08;;;;;;;10.47;4.63;;;7.00;99.90;;;;;;5044905;28;20257;-83
2021/03/09 08:43:02;;;;;;;6.77;3.70;;;7.00;99.90;;;;;;5031712;28;21013;-85
2021/03/09 08:45:42;;;;;;;6.67;3.50;;;7.10;99.90;;;;;;5065663;28;20266;-79
2021/03/09 08:48:11;;;;;;;9.23;3.43;;;7.00;99.90;;;;;;5066833;28;20203;-79
2021/03/09 08:50:43;;;;;;;7.17;3.00;;;7.20;99.90;;;;;;5048524;28;20212;-82
2021/03/09 08:53:31;;;;;;;11.67;3.57;;;7.20;99.90;;;;;;5051613;28;20205;-80
2021/03/09 08:56:01;;;;;;;8.43;3.63;;;7.40;99.90;;;;;;5063308;28;20321;-81
2021/03/09 08:58:28;;;;;;;6.10;3.97;;;7.60;99.90;;;;;;5054583;28;20215;-81
2021/03/09 09:00:56;;;;;;;7.20;3.70;;;8.40;99.90;;;;;;5052559;28;20204;-80
2021/03/09 09:03:30;;;;;;;4.93;2.60;;;8.50;99.90;;;;;;5048152;28;20198;-79
2021/03/09 09:05:57;;;;;;;4.60;2.23;;;8.40;99.90;;;;;;5048579;28;20215;-80
2021/03/09 09:08:23;;;;;;;3.70;2.33;;;8.30;99.90;;;;;;5036631;28;20212;-80
2021/03/09 09:10:51;;;;;;;4.57;2.20;;;8.30;99.90;;;;;;5051427;28;20282;-79
2021/03/09 09:13:37;;;;;;;5.30;2.53;;;8.30;99.90;;;;;;5039135;28;20208;-81
2021/03/09 09:16:17;;;;;;;5.30;2.70;;;8.40;99.90;;;;;;5040367;28;20662;-81
2021/03/09 09:18:45;;;;;;;4.30;2.70;;;8.30;99.90;;;;;;5038011;28;20961;-81
2021/03/09 09:21:12;;;;;;;7.60;2.50;;;8.40;99.90;;;;;;5048404;28;20204;-80
2021/03/09 09:23:54;;;;;;;5.70;2.50;;;8.40;99.90;;;;;;5052923;28;20662;-80
2021/03/09 09:26:21;;;;;;;3.20;2.30;;;8.30;99.90;;;;;;5046531;28;20212;-78
2021/03/09 09:28:47;;;;;;;3.47;1.87;;;8.30;99.90;;;;;;5040272;28;20196;-79
2021/03/09 09:31:16;;;;;;;2.60;1.97;;;8.20;99.90;;;;;;5049281;28;20214;-81
2021/03/09 09:33:54;;;;;;;5.20;2.53;;;8.10;99.90;;;;;;5065428;28;20191;-79
2021/03/09 09:36:22;;;;;;;12.37;5.70;;;8.10;99.90;;;;;;5048517;28;20279;-79
2021/03/09 09:38:53;;;;;;;9.07;3.23;;;8.20;99.90;;;;;;5030994;28;20200;-78
2021/03/09 09:41:21;;;;;;;3.57;2.13;;;8.20;99.90;;;;;;5051292;28;20221;-80
2021/03/09 09:43:48;;;;;;;4.10;2.13;;;8.20;99.90;;;;;;5052660;28;20203;-79
2021/03/09 09:46:21;;;;;;;7.90;4.13;;;8.10;99.90;;;;;;5049720;28;20206;-79
2021/03/09 09:48:49;;;;;;;12.53;5.33;;;8.20;99.90;;;;;;5051099;28;20628;-83
2021/03/09 09:51:23;;;;;;;28.87;9.30;;;8.10;99.90;;;;;;5046042;28;20207;-80
2021/03/09 09:53:51;;;;;;;5.40;2.60;;;8.20;99.90;;;;;;5048521;28;20208;-77
2021/03/09 09:56:20;;;;;;;2.70;1.90;;;8.10;99.90;;;;;;5054893;28;20230;-79
2021/03/09 09:58:47;;;;;;;4.57;1.93;;;8.10;99.90;;;;;;5063574;28;20203;-81
2021/03/09 10:01:18;;;;;;;3.30;1.60;;;8.30;99.90;;;;;;5062723;28;20203;-81
2021/03/09 10:03:58;;;;;;;7.00;2.60;;;8.30;99.90;;;;;;5049205;28;20274;-80
2021/03/09 10:06:37;;;;;;;3.03;1.40;;;8.40;99.90;;;;;;5066706;28;20200;-81
2021/03/09 10:09:15;;;;;;;6.23;2.80;;;8.50;99.90;;;;;;5068082;28;20533;-81
2021/03/09 10:11:54;;;;;;;2.13;1.60;;;8.60;99.90;;;;;;5063946;28;20298;-80
2021/03/09 10:14:25;;;;;;;1.87;1.40;;;8.50;99.90;;;;;;5070649;28;20590;-80
2021/03/09 10:16:52;;;;;;;1.90;1.30;;;8.70;99.90;;;;;;5038430;28;20780;-82
2021/03/09 10:19:21;;;;;;;2.80;1.40;;;8.90;99.90;;;;;;5049068;28;20213;-81
2021/03/09 10:21:50;;;;;;;1.47;1.20;;;9.00;99.90;;;;;;5057972;28;20268;-79
2021/03/09 10:24:31;;;;;;;2.57;1.60;;;9.40;99.90;;;;;;5053912;28;20619;-78
2021/03/09 10:27:01;;;;;;;2.70;1.20;;;9.50;99.90;;;;;;5056175;28;20238;-79
2021/03/09 10:29:34;;;;;;;6.63;3.50;;;9.50;99.90;;;;;;5053476;28;20258;-79
2021/03/09 10:32:03;;;;;;;91.53;27.93;;;9.80;99.90;;;;;;5036936;28;20214;-79
2021/03/09 10:34:38;;;;;;;11.07;4.73;;;9.60;99.90;;;;;;5066981;28;20245;-79
2021/03/09 10:37:06;;;;;;;7.80;2.97;;;9.50;99.90;;;;;;5053282;28;20265;-83
2021/03/09 10:39:36;;;;;;;121.57;35.57;;;9.30;99.90;;;;;;5052704;28;20210;-80
2021/03/09 10:42:28;;;;;;;209.90;64.70;;;9.00;99.90;;;;;;5051920;28;20206;-78
2021/03/09 10:45:16;;;;;;;61.23;19.87;;;9.00;99.90;;;;;;5050145;28;20195;-79
2021/03/09 10:47:46;;;;;;;16.90;6.83;;;8.80;99.90;;;;;;5051868;28;20202;-80
2021/03/09 10:50:14;;;;;;;5.13;2.57;;;8.70;99.90;;;;;;5049780;28;20651;-78
2021/03/09 10:52:40;;;;;;;1.30;0.60;;;9.00;99.90;;;;;;5076182;28;20208;-77
2021/03/09 10:55:09;;;;;;;8.00;2.90;;;8.90;99.90;;;;;;5053071;28;20303;-77
2021/03/09 10:57:35;;;;;;;32.93;9.90;;;9.10;99.90;;;;;;5035011;28;20644;-77
2021/03/09 11:00:10;;;;;;;26.77;8.57;;;8.90;99.90;;;;;;5045339;28;20209;-78
2021/03/09 11:02:37;;;;;;;14.70;5.03;;;8.60;99.90;;;;;;5053097;28;20202;-78
2021/03/09 11:05:05;;;;;;;185.47;54.17;;;8.60;99.90;;;;;;5074113;28;20530;-79
2021/03/09 11:07:31;;;;;;;120.33;36.83;;;8.50;99.90;;;;;;5063122;28;20209;-79
2021/03/09 11:09:58;;;;;;;151.90;45.13;;;8.40;99.90;;;;;;5054624;28;20580;-79
2021/03/09 11:12:24;;;;;;;231.23;72.60;;;8.50;99.90;;;;;;5048050;28;20274;-79
2021/03/09 11:14:51;;;;;;;37.37;15.57;;;8.70;99.90;;;;;;5049773;28;20516;-79
2021/03/09 11:17:18;;;;;;;343.47;107.47;;;8.40;99.90;;;;;;5039080;28;20249;-79
2021/03/09 11:19:45;;;;;;;377.33;123.57;;;8.50;99.90;;;;;;5056614;28;20275;-79
2021/03/09 11:22:12;;;;;;;293.57;96.70;;;8.60;99.90;;;;;;5038489;28;20599;-80
2021/03/09 11:24:38;;;;;;;467.57;148.73;;;8.50;99.90;;;;;;5071799;28;20214;-79
2021/03/09 11:27:05;;;;;;;280.00;92.40;;;8.70;99.90;;;;;;5063719;28;20210;-80
2021/03/09 11:29:33;;;;;;;58.23;20.40;;;8.60;99.90;;;;;;5053181;28;20200;-80
2021/03/09 11:31:59;;;;;;;71.97;22.10;;;8.40;99.90;;;;;;5050526;28;20214;-79
2021/03/09 11:34:26;;;;;;;204.83;62.43;;;8.40;99.90;;;;;;5052053;28;20218;-80
2021/03/09 11:36:54;;;;;;;289.10;92.97;;;8.30;99.90;;;;;;5053848;28;20233;-79
2021/03/09 11:39:21;;;;;;;321.87;102.17;;;8.30;99.90;;;;;;5055702;28;20199;-80
2021/03/09 11:41:52;;;;;;;257.73;84.70;;;8.20;99.90;;;;;;5036531;28;20536;-79
2021/03/09 11:44:22;;;;;;;281.07;87.13;;;8.20;99.90;;;;;;5051987;28;20214;-79
2021/03/09 11:46:49;;;;;;;378.60;124.27;;;8.30;99.90;;;;;;5081745;28;20685;-79
2021/03/09 11:49:17;;;;;;;311.53;106.20;;;8.40;99.90;;;;;;5055165;28;20231;-79
2021/03/09 11:51:44;;;;;;;266.23;89.57;;;8.30;99.90;;;;;;5039564;28;20307;-79
2021/03/09 11:54:12;;;;;;;248.07;79.80;;;8.40;99.90;;;;;;5052900;28;20696;-79
2021/03/09 11:56:39;;;;;;;210.93;65.77;;;8.70;99.90;;;;;;5071811;28;20335;-79
2021/03/09 11:59:06;;;;;;;97.80;33.63;;;8.60;99.90;;;;;;5057222;28;20203;-79
2021/03/09 12:01:32;;;;;;;45.37;16.87;;;8.50;99.90;;;;;;5027253;28;20564;-79
2021/03/09 12:03:59;;;;;;;11.73;4.37;;;8.50;99.90;;;;;;5058768;28;20205;-79
2021/03/09 12:06:25;;;;;;;4.87;1.57;;;8.30;99.90;;;;;;5049210;28;20289;-79
2021/03/09 12:08:52;;;;;;;1.33;0.60;;;8.30;99.90;;;;;;5039359;28;20204;-80
2021/03/09 12:11:19;;;;;;;0.60;0.40;;;8.40;99.90;;;;;;5039654;28;20227;-79
2021/03/09 12:13:46;;;;;;;2.63;0.83;;;8.30;99.90;;;;;;5039726;28;20663;-79
2021/03/09 12:16:12;;;;;;;17.43;5.97;;;8.30;99.90;;;;;;5066983;28;20224;-79
2021/03/09 12:18:39;;;;;;;6.57;3.00;;;8.30;99.90;;;;;;5042187;28;20355;-79
2021/03/09 12:21:06;;;;;;;4.27;1.60;;;8.20;99.90;;;;;;5072363;28;20250;-79
2021/03/09 12:23:32;;;;;;;5.03;1.47;;;8.30;99.90;;;;;;5057728;28;20200;-79
2021/03/09 12:26:09;;;;;;;2.20;0.87;;;8.20;99.90;;;;;;5053987;28;20559;-80
2021/03/09 12:28:36;;;;;;;1.40;0.60;;;8.40;99.90;;;;;;5077164;28;20630;-80
2021/03/09 12:31:02;;;;;;;4.30;0.57;;;8.30;99.90;;;;;;5054470;28;20594;-78
2021/03/09 12:33:30;;;;;;;0.40;0.30;;;8.30;99.90;;;;;;5053403;28;20193;-77
2021/03/09 12:35:57;;;;;;;1.70;0.30;;;8.20;99.90;;;;;;5051490;28;20942;-79
2021/03/09 12:38:23;;;;;;;0.50;0.50;;;8.30;99.90;;;;;;5073084;28;20223;-78
2021/03/09 12:40:49;;;;;;;1.03;0.50;;;8.50;99.90;;;;;;5052576;28;20206;-79
2021/03/09 12:43:16;;;;;;;25.87;10.80;;;8.50;99.90;;;;;;5036228;28;20682;-78
2021/03/09 12:45:43;;;;;;;72.90;26.07;;;8.90;99.90;;;;;;5047324;28;20210;-79
2021/03/09 12:48:09;;;;;;;110.10;37.30;;;9.00;99.90;;;;;;5052627;28;20207;-79
2021/03/09 12:50:40;;;;;;;56.17;20.37;;;9.10;99.90;;;;;;5052842;28;20670;-79
2021/03/09 12:53:07;;;;;;;16.57;7.77;;;9.10;99.90;;;;;;5051738;28;20288;-81
2021/03/09 12:55:33;;;;;;;15.30;4.97;;;8.90;99.90;;;;;;5036544;28;20202;-79